sensor_id;sensor_type;location;lat;lon;timestamp;temperature;humidity
22769;DHT22;13001;51.968;5.918;2024-03-07T00:01:20;6.70;99.90
22769;DHT22;13001;51.968;5.918;2024-03-07T00:03:48;6.70;99.90
22769;DHT22;13001;51.968;5.918;2024-03-07T00:06:16;6.70;99.90
22769;DHT22;13001;51.968;5.918;2024-03-07T00:08:44;6.70;99.90
22769;DHT22;13001;51.968;5.918;2024-03-07T00:11:11;6.70;99.90
22769;DHT22;13001;51.968;5.918;2024-03-07T00:13:39;6.70;99.90
22769;DHT22;13001;51.968;5.918;2024-03-07T00:16:06;6.70;99.90
22769;DHT22;13001;51.968;5.918;2024-03-07T00:18:35;6.70;99.90
22769;DHT22;13001;51.968;5.918;2024-03-07T00:21:03;6.70;99.90
22769;DHT22;13001;51.968;5.918;2024-03-07T00:23:31;6.70;99.90
22769;DHT22;13001;51.968;5.918;2024-03-07T00:26:00;6.70;99.90
22769;DHT22;13001;51.968;5.918;2024-03-07T00:28:29;6.60;99.90
22769;DHT22;13001;51.968;5.918;2024-03-07T00:30:58;6.60;99.90
22769;DHT22;13001;51.968;5.918;2024-03-07T00:33:26;6.60;99.90
22769;DHT22;13001;51.968;5.918;2024-03-07T00:35:53;6.60;99.90
22769;DHT22;13001;51.968;5.918;2024-03-07T00:38:21;6.60;99.90
22769;DHT22;13001;51.968;5.918;2024-03-07T00:40:49;6.60;99.90
22769;DHT22;13001;51.968;5.918;2024-03-07T00:43:17;6.50;99.90
22769;DHT22;13001;51.968;5.918;2024-03-07T00:45:44;6.50;99.90
22769;DHT22;13001;51.968;5.918;2024-03-07T00:48:13;6.50;99.90
22769;DHT22;13001;51.968;5.918;2024-03-07T00:50:41;6.50;99.90
22769;DHT22;13001;51.968;5.918;2024-03-07T00:53:09;6.50;99.90
22769;DHT22;13001;51.968;5.918;2024-03-07T00:55:37;6.50;99.90
22769;DHT22;13001;51.968;5.918;2024-03-07T00:58:04;6.50;99.90
22769;DHT22;13001;51.968;5.918;2024-03-07T01:00:32;6.50;99.90
22769;DHT22;13001;51.968;5.918;2024-03-07T01:03:00;6.50;99.90
22769;DHT22;13001;51.968;5.918;2024-03-07T01:05:47;6.50;99.90
22769;DHT22;13001;51.968;5.918;2024-03-07T01:08:14;6.50;99.90
22769;DHT22;13001;51.968;5.918;2024-03-07T01:10:42;6.40;99.90
22769;DHT22;13001;51.968;5.918;2024-03-07T01:13:10;6.40;99.90
22769;DHT22;13001;51.968;5.918;2024-03-07T01:15:39;6.40;99.90
22769;DHT22;13001;51.968;5.918;2024-03-07T01:18:08;6.40;99.90
22769;DHT22;13001;51.968;5.918;2024-03-07T01:20:35;6.40;99.90
22769;DHT22;13001;51.968;5.918;2024-03-07T01:23:03;6.50;99.90
22769;DHT22;13001;51.968;5.918;2024-03-07T01:25:30;6.50;99.90
22769;DHT22;13001;51.968;5.918;2024-03-07T01:28:03;6.40;99.90
22769;DHT22;13001;51.968;5.918;2024-03-07T01:30:30;6.50;99.90
22769;DHT22;13001;51.968;5.918;2024-03-07T01:32:58;6.40;99.90
22769;DHT22;13001;51.968;5.918;2024-03-07T01:35:25;6.40;99.90
22769;DHT22;13001;51.968;5.918;2024-03-07T01:37:54;6.40;99.90
22769;DHT22;13001;51.968;5.918;2024-03-07T01:40:22;6.40;99.90
22769;DHT22;13001;51.968;5.918;2024-03-07T01:42:52;6.40;99.90
22769;DHT22;13001;51.968;5.918;2024-03-07T01:45:21;6.40;99.90
22769;DHT22;13001;51.968;5.918;2024-03-07T01:47:49;6.40;99.90
22769;DHT22;13001;51.968;5.918;2024-03-07T01:50:16;6.40;99.90
22769;DHT22;13001;51.968;5.918;2024-03-07T01:52:45;6.40;99.90
22769;DHT22;13001;51.968;5.918;2024-03-07T01:55:13;6.40;99.90
22769;DHT22;13001;51.968;5.918;2024-03-07T01:57:40;6.30;99.90
22769;DHT22;13001;51.968;5.918;2024-03-07T02:00:08;6.40;99.90
22769;DHT22;13001;51.968;5.918;2024-03-07T02:02:37;6.30;99.90
22769;DHT22;13001;51.968;5.918;2024-03-07T02:05:05;6.30;99.90
22769;DHT22;13001;51.968;5.918;2024-03-07T02:07:32;6.30;99.90
22769;DHT22;13001;51.968;5.918;2024-03-07T02:10:02;6.30;99.90
22769;DHT22;13001;51.968;5.918;2024-03-07T02:12:30;6.20;99.90
22769;DHT22;13001;51.968;5.918;2024-03-07T02:14:58;6.20;99.90
22769;DHT22;13001;51.968;5.918;2024-03-07T02:17:26;6.20;99.90
22769;DHT22;13001;51.968;5.918;2024-03-07T02:19:54;6.20;99.90
22769;DHT22;13001;51.968;5.918;2024-03-07T02:22:21;6.20;99.90
22769;DHT22;13001;51.968;5.918;2024-03-07T02:24:51;6.20;99.90
22769;DHT22;13001;51.968;5.918;2024-03-07T02:27:18;6.30;99.90
22769;DHT22;13001;51.968;5.918;2024-03-07T02:29:45;6.30;99.90
22769;DHT22;13001;51.968;5.918;2024-03-07T02:32:13;6.30;99.90
22769;DHT22;13001;51.968;5.918;2024-03-07T02:34:41;6.30;99.90
22769;DHT22;13001;51.968;5.918;2024-03-07T02:37:10;6.40;99.90
22769;DHT22;13001;51.968;5.918;2024-03-07T02:39:37;6.40;99.90
22769;DHT22;13001;51.968;5.918;2024-03-07T02:42:05;6.40;99.90
22769;DHT22;13001;51.968;5.918;2024-03-07T02:44:32;6.40;99.90
22769;DHT22;13001;51.968;5.918;2024-03-07T02:47:04;6.40;99.90
22769;DHT22;13001;51.968;5.918;2024-03-07T02:49:33;6.40;99.90
22769;DHT22;13001;51.968;5.918;2024-03-07T02:52:01;6.50;99.90
22769;DHT22;13001;51.968;5.918;2024-03-07T02:54:28;6.50;99.90
22769;DHT22;13001;51.968;5.918;2024-03-07T02:56:56;6.50;99.90
22769;DHT22;13001;51.968;5.918;2024-03-07T02:59:23;6.50;99.90
22769;DHT22;13001;51.968;5.918;2024-03-07T03:01:51;6.50;99.90
22769;DHT22;13001;51.968;5.918;2024-03-07T03:04:18;6.40;99.90
22769;DHT22;13001;51.968;5.918;2024-03-07T03:06:46;6.40;99.90
22769;DHT22;13001;51.968;5.918;2024-03-07T03:09:13;6.40;99.90
22769;DHT22;13001;51.968;5.918;2024-03-07T03:11:44;6.30;99.90
22769;DHT22;13001;51.968;5.918;2024-03-07T03:14:13;6.30;99.90
22769;DHT22;13001;51.968;5.918;2024-03-07T03:16:44;6.30;99.90
22769;DHT22;13001;51.968;5.918;2024-03-07T03:19:11;6.30;99.90
22769;DHT22;13001;51.968;5.918;2024-03-07T03:21:39;6.20;99.90
22769;DHT22;13001;51.968;5.918;2024-03-07T03:24:07;6.20;99.90
22769;DHT22;13001;51.968;5.918;2024-03-07T03:26:35;6.20;99.90
22769;DHT22;13001;51.968;5.918;2024-03-07T03:29:02;6.10;99.90
22769;DHT22;13001;51.968;5.918;2024-03-07T03:31:30;6.20;99.90
22769;DHT22;13001;51.968;5.918;2024-03-07T03:33:58;6.10;99.90
22769;DHT22;13001;51.968;5.918;2024-03-07T03:36:25;6.10;99.90
22769;DHT22;13001;51.968;5.918;2024-03-07T03:38:52;6.10;99.90
22769;DHT22;13001;51.968;5.918;2024-03-07T03:41:20;6.10;99.90
22769;DHT22;13001;51.968;5.918;2024-03-07T03:43:49;6.10;99.90
22769;DHT22;13001;51.968;5.918;2024-03-07T03:46:16;6.10;99.90
22769;DHT22;13001;51.968;5.918;2024-03-07T03:48:44;6.00;99.90
22769;DHT22;13001;51.968;5.918;2024-03-07T03:51:12;6.10;99.90
22769;DHT22;13001;51.968;5.918;2024-03-07T03:53:42;6.00;99.90
22769;DHT22;13001;51.968;5.918;2024-03-07T03:56:10;6.00;99.90
22769;DHT22;13001;51.968;5.918;2024-03-07T03:58:42;6.00;99.90
22769;DHT22;13001;51.968;5.918;2024-03-07T04:01:09;6.00;99.90
22769;DHT22;13001;51.968;5.918;2024-03-07T04:03:39;6.00;99.90
22769;DHT22;13001;51.968;5.918;2024-03-07T04:06:06;5.90;99.90
22769;DHT22;13001;51.968;5.918;2024-03-07T04:08:34;5.90;99.90
22769;DHT22;13001;51.968;5.918;2024-03-07T04:11:07;5.90;99.90
22769;DHT22;13001;51.968;5.918;2024-03-07T04:13:34;5.90;99.90
22769;DHT22;13001;51.968;5.918;2024-03-07T04:16:01;5.90;99.90
22769;DHT22;13001;51.968;5.918;2024-03-07T04:18:29;5.90;99.90
22769;DHT22;13001;51.968;5.918;2024-03-07T04:20:56;5.80;99.90
22769;DHT22;13001;51.968;5.918;2024-03-07T04:23:24;5.80;99.90
22769;DHT22;13001;51.968;5.918;2024-03-07T04:25:52;5.80;99.90
22769;DHT22;13001;51.968;5.918;2024-03-07T04:28:21;5.70;99.90
22769;DHT22;13001;51.968;5.918;2024-03-07T04:30:49;5.70;99.90
22769;DHT22;13001;51.968;5.918;2024-03-07T04:33:18;5.60;99.90
22769;DHT22;13001;51.968;5.918;2024-03-07T04:35:47;5.60;99.90
22769;DHT22;13001;51.968;5.918;2024-03-07T04:38:16;5.60;99.90
22769;DHT22;13001;51.968;5.918;2024-03-07T04:40:43;5.60;99.90
22769;DHT22;13001;51.968;5.918;2024-03-07T04:43:11;5.50;99.90
22769;DHT22;13001;51.968;5.918;2024-03-07T04:45:39;5.50;99.90
22769;DHT22;13001;51.968;5.918;2024-03-07T04:48:06;5.50;99.90
22769;DHT22;13001;51.968;5.918;2024-03-07T04:50:36;5.50;99.90
22769;DHT22;13001;51.968;5.918;2024-03-07T04:53:03;5.50;99.90
22769;DHT22;13001;51.968;5.918;2024-03-07T04:55:32;5.40;99.90
22769;DHT22;13001;51.968;5.918;2024-03-07T04:58:00;5.40;99.90
22769;DHT22;13001;51.968;5.918;2024-03-07T05:00:27;5.40;99.90
22769;DHT22;13001;51.968;5.918;2024-03-07T05:02:55;5.40;99.90
22769;DHT22;13001;51.968;5.918;2024-03-07T05:05:24;5.40;99.90
22769;DHT22;13001;51.968;5.918;2024-03-07T05:07:53;5.40;99.90
22769;DHT22;13001;51.968;5.918;2024-03-07T05:10:22;5.40;99.90
22769;DHT22;13001;51.968;5.918;2024-03-07T05:12:49;5.30;99.90
22769;DHT22;13001;51.968;5.918;2024-03-07T05:15:17;5.40;99.90
22769;DHT22;13001;51.968;5.918;2024-03-07T05:17:45;5.30;99.90
22769;DHT22;13001;51.968;5.918;2024-03-07T05:20:12;5.30;99.90
22769;DHT22;13001;51.968;5.918;2024-03-07T05:22:43;5.30;99.90
22769;DHT22;13001;51.968;5.918;2024-03-07T05:25:19;5.30;99.90
22769;DHT22;13001;51.968;5.918;2024-03-07T05:27:46;5.30;99.90
22769;DHT22;13001;51.968;5.918;2024-03-07T05:30:15;5.30;99.90
22769;DHT22;13001;51.968;5.918;2024-03-07T05:32:43;5.30;99.90
22769;DHT22;13001;51.968;5.918;2024-03-07T05:35:11;5.30;99.90
22769;DHT22;13001;51.968;5.918;2024-03-07T05:37:38;5.30;99.90
22769;DHT22;13001;51.968;5.918;2024-03-07T05:40:08;5.20;99.90
22769;DHT22;13001;51.968;5.918;2024-03-07T05:42:36;5.20;99.90
22769;DHT22;13001;51.968;5.918;2024-03-07T05:45:03;5.20;99.90
22769;DHT22;13001;51.968;5.918;2024-03-07T05:47:33;5.20;99.90
22769;DHT22;13001;51.968;5.918;2024-03-07T05:50:01;5.20;99.90
22769;DHT22;13001;51.968;5.918;2024-03-07T05:52:30;5.20;99.90
22769;DHT22;13001;51.968;5.918;2024-03-07T05:54:58;5.20;99.90
22769;DHT22;13001;51.968;5.918;2024-03-07T05:57:25;5.20;99.90
22769;DHT22;13001;51.968;5.918;2024-03-07T05:59:53;5.20;99.90
22769;DHT22;13001;51.968;5.918;2024-03-07T06:02:20;5.20;99.90
22769;DHT22;13001;51.968;5.918;2024-03-07T06:04:48;5.20;99.90
22769;DHT22;13001;51.968;5.918;2024-03-07T06:07:16;5.20;99.90
22769;DHT22;13001;51.968;5.918;2024-03-07T06:09:43;5.20;99.90
22769;DHT22;13001;51.968;5.918;2024-03-07T06:12:11;5.20;99.90
22769;DHT22;13001;51.968;5.918;2024-03-07T06:14:38;5.20;99.90
22769;DHT22;13001;51.968;5.918;2024-03-07T06:17:06;5.20;99.90
22769;DHT22;13001;51.968;5.918;2024-03-07T06:19:33;5.20;99.90
22769;DHT22;13001;51.968;5.918;2024-03-07T06:22:01;5.30;99.90
22769;DHT22;13001;51.968;5.918;2024-03-07T06:24:30;5.30;99.90
22769;DHT22;13001;51.968;5.918;2024-03-07T06:26:58;5.30;99.90
22769;DHT22;13001;51.968;5.918;2024-03-07T06:29:30;5.40;99.90
22769;DHT22;13001;51.968;5.918;2024-03-07T06:31:57;5.50;99.90
22769;DHT22;13001;51.968;5.918;2024-03-07T06:34:26;5.70;99.90
22769;DHT22;13001;51.968;5.918;2024-03-07T06:36:55;6.00;99.90
22769;DHT22;13001;51.968;5.918;2024-03-07T06:39:23;6.30;99.90
22769;DHT22;13001;51.968;5.918;2024-03-07T06:41:51;6.60;99.90
22769;DHT22;13001;51.968;5.918;2024-03-07T06:44:19;6.90;99.90
22769;DHT22;13001;51.968;5.918;2024-03-07T06:46:48;7.30;99.90
22769;DHT22;13001;51.968;5.918;2024-03-07T06:49:15;7.60;99.90
22769;DHT22;13001;51.968;5.918;2024-03-07T06:51:43;7.90;99.90
22769;DHT22;13001;51.968;5.918;2024-03-07T06:54:10;8.20;99.90
22769;DHT22;13001;51.968;5.918;2024-03-07T06:56:38;8.50;99.90
22769;DHT22;13001;51.968;5.918;2024-03-07T06:59:07;9.00;99.90
22769;DHT22;13001;51.968;5.918;2024-03-07T07:01:35;9.50;99.90
22769;DHT22;13001;51.968;5.918;2024-03-07T07:04:03;10.00;99.10
22769;DHT22;13001;51.968;5.918;2024-03-07T07:06:31;10.50;97.60
22769;DHT22;13001;51.968;5.918;2024-03-07T07:08:58;11.00;95.90
22769;DHT22;13001;51.968;5.918;2024-03-07T07:11:27;11.50;94.30
22769;DHT22;13001;51.968;5.918;2024-03-07T07:13:55;11.90;93.00
22769;DHT22;13001;51.968;5.918;2024-03-07T07:16:22;12.40;91.60
22769;DHT22;13001;51.968;5.918;2024-03-07T07:18:51;12.50;90.30
22769;DHT22;13001;51.968;5.918;2024-03-07T07:21:18;12.50;88.60
22769;DHT22;13001;51.968;5.918;2024-03-07T07:23:47;11.70;87.80
22769;DHT22;13001;51.968;5.918;2024-03-07T07:26:15;10.90;90.00
22769;DHT22;13001;51.968;5.918;2024-03-07T07:28:43;10.20;91.10
22769;DHT22;13001;51.968;5.918;2024-03-07T07:31:10;9.70;92.00
22769;DHT22;13001;51.968;5.918;2024-03-07T07:33:38;9.40;92.70
22769;DHT22;13001;51.968;5.918;2024-03-07T07:36:06;9.60;93.50
22769;DHT22;13001;51.968;5.918;2024-03-07T07:38:33;10.70;93.20
22769;DHT22;13001;51.968;5.918;2024-03-07T07:41:01;12.10;91.10
22769;DHT22;13001;51.968;5.918;2024-03-07T07:43:29;13.40;87.30
22769;DHT22;13001;51.968;5.918;2024-03-07T07:45:56;14.20;82.80
22769;DHT22;13001;51.968;5.918;2024-03-07T07:48:24;14.80;79.00
22769;DHT22;13001;51.968;5.918;2024-03-07T07:50:51;15.20;76.40
22769;DHT22;13001;51.968;5.918;2024-03-07T07:53:19;15.50;74.00
22769;DHT22;13001;51.968;5.918;2024-03-07T07:55:46;15.70;72.50
22769;DHT22;13001;51.968;5.918;2024-03-07T07:58:15;16.10;71.40
22769;DHT22;13001;51.968;5.918;2024-03-07T08:00:43;16.60;69.50
22769;DHT22;13001;51.968;5.918;2024-03-07T08:03:11;16.90;67.20
22769;DHT22;13001;51.968;5.918;2024-03-07T08:05:40;17.20;66.00
22769;DHT22;13001;51.968;5.918;2024-03-07T08:08:09;17.30;65.10
22769;DHT22;13001;51.968;5.918;2024-03-07T08:10:39;17.60;64.00
22769;DHT22;13001;51.968;5.918;2024-03-07T08:13:10;17.70;62.90
22769;DHT22;13001;51.968;5.918;2024-03-07T08:15:39;17.70;62.10
22769;DHT22;13001;51.968;5.918;2024-03-07T08:18:08;17.70;61.30
22769;DHT22;13001;51.968;5.918;2024-03-07T08:20:36;17.60;62.10
22769;DHT22;13001;51.968;5.918;2024-03-07T08:23:03;17.60;60.40
22769;DHT22;13001;51.968;5.918;2024-03-07T08:25:31;17.60;60.90
22769;DHT22;13001;51.968;5.918;2024-03-07T08:27:59;17.60;60.70
22769;DHT22;13001;51.968;5.918;2024-03-07T08:30:27;17.50;60.20
22769;DHT22;13001;51.968;5.918;2024-03-07T08:32:56;17.40;60.60
22769;DHT22;13001;51.968;5.918;2024-03-07T08:35:24;17.20;60.80
22769;DHT22;13001;51.968;5.918;2024-03-07T08:37:54;17.20;60.70
22769;DHT22;13001;51.968;5.918;2024-03-07T08:40:23;17.10;60.90
22769;DHT22;13001;51.968;5.918;2024-03-07T08:42:52;17.30;61.00
22769;DHT22;13001;51.968;5.918;2024-03-07T08:45:23;17.50;60.10
22769;DHT22;13001;51.968;5.918;2024-03-07T08:47:52;17.80;60.50
22769;DHT22;13001;51.968;5.918;2024-03-07T08:50:22;18.20;59.00
22769;DHT22;13001;51.968;5.918;2024-03-07T08:52:50;18.20;58.10
22769;DHT22;13001;51.968;5.918;2024-03-07T08:55:23;18.20;58.60
22769;DHT22;13001;51.968;5.918;2024-03-07T08:57:51;18.50;58.30
22769;DHT22;13001;51.968;5.918;2024-03-07T09:00:19;18.90;57.40
22769;DHT22;13001;51.968;5.918;2024-03-07T09:02:56;19.10;57.00
22769;DHT22;13001;51.968;5.918;2024-03-07T09:05:25;19.10;56.00
22769;DHT22;13001;51.968;5.918;2024-03-07T09:07:54;19.20;56.10
22769;DHT22;13001;51.968;5.918;2024-03-07T09:10:22;19.30;56.00
22769;DHT22;13001;51.968;5.918;2024-03-07T09:12:52;19.50;55.80
22769;DHT22;13001;51.968;5.918;2024-03-07T09:15:20;20.10;54.70
22769;DHT22;13001;51.968;5.918;2024-03-07T09:17:51;20.20;54.30
22769;DHT22;13001;51.968;5.918;2024-03-07T09:20:19;20.20;53.50
22769;DHT22;13001;51.968;5.918;2024-03-07T09:22:48;20.30;53.10
22769;DHT22;13001;51.968;5.918;2024-03-07T09:25:17;20.00;52.80
22769;DHT22;13001;51.968;5.918;2024-03-07T09:27:45;19.10;53.50
22769;DHT22;13001;51.968;5.918;2024-03-07T09:30:13;17.90;55.30
22769;DHT22;13001;51.968;5.918;2024-03-07T09:32:43;17.00;58.10
22769;DHT22;13001;51.968;5.918;2024-03-07T09:35:10;16.10;60.30
22769;DHT22;13001;51.968;5.918;2024-03-07T09:37:43;15.40;62.40
22769;DHT22;13001;51.968;5.918;2024-03-07T09:40:10;14.90;64.00
22769;DHT22;13001;51.968;5.918;2024-03-07T09:42:48;14.40;64.90
22769;DHT22;13001;51.968;5.918;2024-03-07T09:45:19;13.90;66.20
22769;DHT22;13001;51.968;5.918;2024-03-07T09:47:48;13.30;68.00
22769;DHT22;13001;51.968;5.918;2024-03-07T09:50:19;12.90;69.20
22769;DHT22;13001;51.968;5.918;2024-03-07T09:52:49;12.70;71.30
22769;DHT22;13001;51.968;5.918;2024-03-07T09:55:18;12.60;72.20
22769;DHT22;13001;51.968;5.918;2024-03-07T09:57:48;12.60;73.10
22769;DHT22;13001;51.968;5.918;2024-03-07T10:00:18;12.70;72.80
22769;DHT22;13001;51.968;5.918;2024-03-07T10:02:58;12.70;72.60
22769;DHT22;13001;51.968;5.918;2024-03-07T10:05:27;12.60;72.60
22769;DHT22;13001;51.968;5.918;2024-03-07T10:07:56;12.50;73.10
22769;DHT22;13001;51.968;5.918;2024-03-07T10:10:25;12.40;73.30
22769;DHT22;13001;51.968;5.918;2024-03-07T10:12:53;12.30;73.40
22769;DHT22;13001;51.968;5.918;2024-03-07T10:15:20;12.30;73.70
22769;DHT22;13001;51.968;5.918;2024-03-07T10:17:49;12.10;73.80
22769;DHT22;13001;51.968;5.918;2024-03-07T10:20:18;12.00;74.50
22769;DHT22;13001;51.968;5.918;2024-03-07T10:22:51;11.90;75.00
22769;DHT22;13001;51.968;5.918;2024-03-07T10:25:24;11.90;75.90
22769;DHT22;13001;51.968;5.918;2024-03-07T10:27:51;11.90;76.00
22769;DHT22;13001;51.968;5.918;2024-03-07T10:30:19;11.90;76.10
22769;DHT22;13001;51.968;5.918;2024-03-07T10:32:47;11.90;76.30
22769;DHT22;13001;51.968;5.918;2024-03-07T10:35:22;11.90;76.20
22769;DHT22;13001;51.968;5.918;2024-03-07T10:37:54;12.00;76.30
22769;DHT22;13001;51.968;5.918;2024-03-07T10:40:23;12.00;75.50
22769;DHT22;13001;51.968;5.918;2024-03-07T10:42:56;11.90;75.40
22769;DHT22;13001;51.968;5.918;2024-03-07T10:45:23;11.90;75.90
22769;DHT22;13001;51.968;5.918;2024-03-07T10:47:55;11.90;76.40
22769;DHT22;13001;51.968;5.918;2024-03-07T10:56:09;12.10;75.70
22769;DHT22;13001;51.968;5.918;2024-03-07T11:01:10;12.30;75.40
22769;DHT22;13001;51.968;5.918;2024-03-07T11:03:40;12.20;75.20
22769;DHT22;13001;51.968;5.918;2024-03-07T11:06:10;12.20;76.00
22769;DHT22;13001;51.968;5.918;2024-03-07T11:08:38;12.10;74.80
22769;DHT22;13001;51.968;5.918;2024-03-07T11:11:06;12.00;75.00
22769;DHT22;13001;51.968;5.918;2024-03-07T11:13:35;11.90;75.20
22769;DHT22;13001;51.968;5.918;2024-03-07T11:16:05;11.90;75.00
22769;DHT22;13001;51.968;5.918;2024-03-07T11:18:33;11.80;74.50
22769;DHT22;13001;51.968;5.918;2024-03-07T11:21:00;11.80;75.30
22769;DHT22;13001;51.968;5.918;2024-03-07T11:23:31;11.70;74.70
22769;DHT22;13001;51.968;5.918;2024-03-07T11:26:09;11.70;74.80
22769;DHT22;13001;51.968;5.918;2024-03-07T11:28:43;11.50;75.40
22769;DHT22;13001;51.968;5.918;2024-03-07T11:31:26;11.40;76.20
22769;DHT22;13001;51.968;5.918;2024-03-07T11:34:16;11.50;76.30
22769;DHT22;13001;51.968;5.918;2024-03-07T11:36:49;11.50;76.50
22769;DHT22;13001;51.968;5.918;2024-03-07T11:39:41;11.50;76.10
22769;DHT22;13001;51.968;5.918;2024-03-07T11:42:27;11.50;76.00
22769;DHT22;13001;51.968;5.918;2024-03-07T11:45:00;11.70;75.90
22769;DHT22;13001;51.968;5.918;2024-03-07T11:47:37;11.80;75.80
22769;DHT22;13001;51.968;5.918;2024-03-07T11:50:09;12.00;76.30
22769;DHT22;13001;51.968;5.918;2024-03-07T11:52:42;12.30;75.80
22769;DHT22;13001;51.968;5.918;2024-03-07T11:55:12;12.50;75.10
22769;DHT22;13001;51.968;5.918;2024-03-07T11:57:40;12.60;74.80
22769;DHT22;13001;51.968;5.918;2024-03-07T12:00:18;12.40;73.40
22769;DHT22;13001;51.968;5.918;2024-03-07T12:02:45;12.30;74.50
22769;DHT22;13001;51.968;5.918;2024-03-07T12:05:14;12.20;74.90
22769;DHT22;13001;51.968;5.918;2024-03-07T12:07:44;12.10;75.10
22769;DHT22;13001;51.968;5.918;2024-03-07T12:10:14;12.00;75.50
22769;DHT22;13001;51.968;5.918;2024-03-07T12:12:43;11.90;76.60
22769;DHT22;13001;51.968;5.918;2024-03-07T12:15:10;11.70;77.00
22769;DHT22;13001;51.968;5.918;2024-03-07T12:17:47;11.40;77.30
22769;DHT22;13001;51.968;5.918;2024-03-07T12:20:16;11.10;78.00
22769;DHT22;13001;51.968;5.918;2024-03-07T12:22:58;11.00;79.60
22769;DHT22;13001;51.968;5.918;2024-03-07T12:25:31;11.10;79.40
22769;DHT22;13001;51.968;5.918;2024-03-07T12:28:02;11.30;79.70
22769;DHT22;13001;51.968;5.918;2024-03-07T12:30:35;11.40;79.00
22769;DHT22;13001;51.968;5.918;2024-03-07T12:33:06;11.50;78.60
22769;DHT22;13001;51.968;5.918;2024-03-07T12:35:33;11.50;78.70
22769;DHT22;13001;51.968;5.918;2024-03-07T12:38:02;11.40;78.90
22769;DHT22;13001;51.968;5.918;2024-03-07T12:40:30;11.50;79.00
22769;DHT22;13001;51.968;5.918;2024-03-07T12:42:59;11.50;80.20
22769;DHT22;13001;51.968;5.918;2024-03-07T12:45:29;11.50;80.10
22769;DHT22;13001;51.968;5.918;2024-03-07T12:47:59;11.50;79.80
22769;DHT22;13001;51.968;5.918;2024-03-07T12:50:28;11.40;80.60
22769;DHT22;13001;51.968;5.918;2024-03-07T12:52:56;11.30;80.70
22769;DHT22;13001;51.968;5.918;2024-03-07T12:55:23;11.10;81.40
22769;DHT22;13001;51.968;5.918;2024-03-07T12:57:51;11.00;82.30
22769;DHT22;13001;51.968;5.918;2024-03-07T13:00:19;10.90;83.00
22769;DHT22;13001;51.968;5.918;2024-03-07T13:02:49;10.80;83.40
22769;DHT22;13001;51.968;5.918;2024-03-07T13:05:17;10.70;84.00
22769;DHT22;13001;51.968;5.918;2024-03-07T13:07:49;10.70;85.00
22769;DHT22;13001;51.968;5.918;2024-03-07T13:10:16;10.80;85.10
22769;DHT22;13001;51.968;5.918;2024-03-07T13:12:46;10.70;85.10
22769;DHT22;13001;51.968;5.918;2024-03-07T13:15:15;10.70;85.30
22769;DHT22;13001;51.968;5.918;2024-03-07T13:17:43;10.90;85.60
22769;DHT22;13001;51.968;5.918;2024-03-07T13:20:12;10.90;85.30
22769;DHT22;13001;51.968;5.918;2024-03-07T13:22:44;10.80;85.40
22769;DHT22;13001;51.968;5.918;2024-03-07T13:25:24;10.80;86.10
22769;DHT22;13001;51.968;5.918;2024-03-07T13:28:06;10.80;86.70
22769;DHT22;13001;51.968;5.918;2024-03-07T13:30:36;10.80;87.40
22769;DHT22;13001;51.968;5.918;2024-03-07T13:33:04;10.80;87.40
22769;DHT22;13001;51.968;5.918;2024-03-07T13:35:34;10.80;87.30
22769;DHT22;13001;51.968;5.918;2024-03-07T13:38:02;10.80;87.10
22769;DHT22;13001;51.968;5.918;2024-03-07T13:40:30;10.70;87.20
22769;DHT22;13001;51.968;5.918;2024-03-07T13:43:01;10.70;87.90
22769;DHT22;13001;51.968;5.918;2024-03-07T13:45:30;10.70;88.50
22769;DHT22;13001;51.968;5.918;2024-03-07T13:48:01;10.70;88.70
22769;DHT22;13001;51.968;5.918;2024-03-07T13:50:32;10.70;89.00
22769;DHT22;13001;51.968;5.918;2024-03-07T13:53:01;10.70;88.70
22769;DHT22;13001;51.968;5.918;2024-03-07T14:03:45;10.10;90.00
22769;DHT22;13001;51.968;5.918;2024-03-07T14:06:14;10.00;90.30
22769;DHT22;13001;51.968;5.918;2024-03-07T14:11:41;9.70;90.80
22769;DHT22;13001;51.968;5.918;2024-03-07T14:14:44;9.70;91.00
22769;DHT22;13001;51.968;5.918;2024-03-07T14:25:54;9.60;91.30
22769;DHT22;13001;51.968;5.918;2024-03-07T14:31:12;9.50;91.30
22769;DHT22;13001;51.968;5.918;2024-03-07T14:34:04;9.50;91.30
22769;DHT22;13001;51.968;5.918;2024-03-07T14:36:49;9.40;91.40
22769;DHT22;13001;51.968;5.918;2024-03-07T14:39:18;9.50;91.70
22769;DHT22;13001;51.968;5.918;2024-03-07T14:41:55;9.50;91.80
22769;DHT22;13001;51.968;5.918;2024-03-07T14:44:23;9.40;91.70
22769;DHT22;13001;51.968;5.918;2024-03-07T14:46:56;9.30;91.80
22769;DHT22;13001;51.968;5.918;2024-03-07T14:49:25;9.30;92.30
22769;DHT22;13001;51.968;5.918;2024-03-07T14:51:54;9.40;92.00
22769;DHT22;13001;51.968;5.918;2024-03-07T14:54:27;9.40;91.90
22769;DHT22;13001;51.968;5.918;2024-03-07T14:56:56;9.30;91.90
22769;DHT22;13001;51.968;5.918;2024-03-07T14:59:26;9.40;92.10
22769;DHT22;13001;51.968;5.918;2024-03-07T15:01:54;9.40;92.20
22769;DHT22;13001;51.968;5.918;2024-03-07T15:04:22;9.50;92.10
22769;DHT22;13001;51.968;5.918;2024-03-07T15:06:50;9.50;92.00
22769;DHT22;13001;51.968;5.918;2024-03-07T15:09:19;9.50;92.00
22769;DHT22;13001;51.968;5.918;2024-03-07T15:11:46;9.40;92.10
22769;DHT22;13001;51.968;5.918;2024-03-07T15:14:14;9.40;92.30
22769;DHT22;13001;51.968;5.918;2024-03-07T15:16:42;9.40;92.20
22769;DHT22;13001;51.968;5.918;2024-03-07T15:19:09;9.30;92.20
22769;DHT22;13001;51.968;5.918;2024-03-07T15:21:37;9.30;92.30
22769;DHT22;13001;51.968;5.918;2024-03-07T15:24:06;9.30;92.30
22769;DHT22;13001;51.968;5.918;2024-03-07T15:26:34;9.30;92.30
22769;DHT22;13001;51.968;5.918;2024-03-07T15:29:01;9.20;92.30
22769;DHT22;13001;51.968;5.918;2024-03-07T15:31:29;9.20;92.40
22769;DHT22;13001;51.968;5.918;2024-03-07T15:33:57;9.20;92.60
22769;DHT22;13001;51.968;5.918;2024-03-07T15:36:26;9.10;92.60
22769;DHT22;13001;51.968;5.918;2024-03-07T15:38:57;9.10;92.80
22769;DHT22;13001;51.968;5.918;2024-03-07T15:41:27;9.10;93.10
22769;DHT22;13001;51.968;5.918;2024-03-07T15:43:54;9.30;93.10
22769;DHT22;13001;51.968;5.918;2024-03-07T15:46:22;9.30;92.90
22769;DHT22;13001;51.968;5.918;2024-03-07T15:48:51;9.40;92.90
22769;DHT22;13001;51.968;5.918;2024-03-07T15:51:20;9.50;92.80
22769;DHT22;13001;51.968;5.918;2024-03-07T15:53:48;9.50;92.60
22769;DHT22;13001;51.968;5.918;2024-03-07T15:56:15;9.40;92.60
22769;DHT22;13001;51.968;5.918;2024-03-07T15:58:44;9.30;92.80
22769;DHT22;13001;51.968;5.918;2024-03-07T16:01:11;9.20;93.00
22769;DHT22;13001;51.968;5.918;2024-03-07T16:03:42;9.10;93.20
22769;DHT22;13001;51.968;5.918;2024-03-07T16:06:11;9.00;93.20
22769;DHT22;13001;51.968;5.918;2024-03-07T16:08:42;9.00;93.30
22769;DHT22;13001;51.968;5.918;2024-03-07T16:11:10;9.10;93.40
22769;DHT22;13001;51.968;5.918;2024-03-07T16:13:39;9.20;93.50
22769;DHT22;13001;51.968;5.918;2024-03-07T16:16:08;9.30;93.40
22769;DHT22;13001;51.968;5.918;2024-03-07T16:18:40;9.30;93.20
22769;DHT22;13001;51.968;5.918;2024-03-07T16:21:09;9.40;93.00
22769;DHT22;13001;51.968;5.918;2024-03-07T16:23:38;9.40;92.80